Flight Track Log - Related Links

Times and Time Zones

All times are in EDT time to prevent confusion due to time zone crossing. See the AWI3976 flight status page for this flight to view local times or setup timezone preferences in your user account.

Time Position Orientation Groundspeed Altitude Reporting Facility
EDT Latitude Longitude Course Direction KTS MPH feet Rate Location/Type
Sun 07:40:59 AM 34.9569 -82.1558 North 193 222 3,500  Level Atlanta Center
Sun 07:41:59 AM 34.9850 -82.0817 65° Northeast 226 260 4,900 1,650 Climbing Atlanta Center
Sun 07:42:00 AM 35.0191 -81.9380 51° Northeast  Level FlightAware Approximate
Sun 07:42:59 AM 35.0147 -81.9897 68° East 251 289 6,800  Level Atlanta Center
Sun 07:43:00 AM 35.1001 -81.9167 North  Level FlightAware Approximate
Sun 07:43:59 AM 35.0681 -81.9275 44° Northeast 269 310 8,700  Level Atlanta Center
Sun 07:44:00 AM 35.1881 -81.9294 345° North  Level FlightAware Approximate
Sun 07:44:59 AM 35.1536 -81.9328 357° North 252 290 10,400  Level Atlanta Center
Sun 07:45:00 AM 35.2770 -81.9333 North  Level FlightAware Approximate
Sun 07:45:59 AM 35.2456 -81.9406 356° North 275 316 11,700  Level Atlanta Center
Sun 07:46:59 AM 35.3258 -81.8853 29° Northeast 311 358 13,500 1,550 Climbing Atlanta Center
Sun 07:47:59 AM 35.3697 -81.7744 64° Northeast 309 356 14,800 1,500 Climbing Atlanta Center
Sun 07:48:59 AM 35.4136 -81.6611 65° Northeast 335 386 16,500 1,350 Climbing Atlanta Center
Sun 07:49:59 AM 35.4572 -81.5453 65° Northeast 352 405 17,500 1,050 Climbing Atlanta Center
Sun 07:50:59 AM 35.5028 -81.4264 65° Northeast 368 423 18,600 1,000 Climbing Atlanta Center
Sun 07:51:59 AM 35.5481 -81.3075 65° Northeast 373 429 19,500 950 Climbing Atlanta Center
Sun 07:52:59 AM 35.5953 -81.1833 65° Northeast 386 444 20,500 1,000 Climbing Atlanta Center
Sun 07:53:59 AM 35.6503 -81.0383 65° Northeast 408 470 21,500 900 Climbing Atlanta Center
Sun 07:54:59 AM 35.6972 -80.9114 65° Northeast 403 464 22,300 750 Climbing Atlanta Center
Sun 07:55:59 AM 35.7439 -80.7867 65° Northeast 403 464 23,000 750 Climbing Atlanta Center
Sun 07:56:59 AM 35.7947 -80.6542 65° Northeast 403 464 23,800 900 Climbing Atlanta Center
Sun 07:57:59 AM 35.8411 -80.5267 66° East 408 470 24,800 1,000 Climbing Atlanta Center
Sun 07:58:59 AM 35.8894 -80.3964 65° Northeast 403 464 25,800 900 Climbing Atlanta Center
Sun 07:59:59 AM 35.9378 -80.2686 65° Northeast 403 464 26,600 426 Climbing Atlanta Center
Sun 08:01:48 AM 36.0189 -80.0450 66° East 394 453 27,000 143 Climbing Washington Center
Sun 08:02:47 AM 36.0756 -79.9275 59° Northeast 389 448 27,000  Level Washington Center
Sun 08:03:47 AM 36.1356 -79.8203 55° Northeast 389 448 27,000  Level Washington Center
Sun 08:04:48 AM 36.2044 -79.7003 55° Northeast 408 470 27,000  Level Washington Center
Sun 08:05:49 AM 36.2581 -79.6000 56° Northeast 403 464 27,000  Level Washington Center
Sun 08:06:47 AM 36.3267 -79.4797 55° Northeast 398 458 27,000  Level Washington Center
Sun 08:07:47 AM 36.3842 -79.3794 55° Northeast 390 449 27,000 -393 Level Washington Center
Sun 08:08:49 AM 36.4525 -79.2564 55° Northeast 390 449 26,200 -836 Descending Washington Center
Sun 08:09:49 AM 36.5122 -79.1506 55° Northeast 402 463 25,300 -600 Descending Washington Center
Sun 08:10:49 AM 36.5825 -79.0322 53° Northeast 391 450 25,000 -153 Descending Washington Center
Sun 08:11:47 AM 36.6442 -78.9158 57° Northeast 391 450 25,000  Level Washington Center
Sun 08:12:49 AM 36.6992 -78.8119 57° Northeast 401 461 25,000  Level Washington Center
Sun 08:13:46 AM 36.7692 -78.6878 55° Northeast 401 461 25,000 -202 Level Washington Center
Sun 08:14:48 AM 36.8281 -78.5889 53° Northeast 396 456 24,600 -634 Descending Washington Center
Sun 08:15:49 AM 36.8969 -78.4981 47° Northeast 396 456 23,700 -1,091 Descending Washington Center
Sun 08:16:49 AM 36.9897 -78.3689 48° Northeast 409 471 22,400 -864 Descending Washington Center
Sun 08:17:47 AM 37.0650 -78.2650 48° Northeast 409 471 22,000 -202 Descending Washington Center
Sun 08:18:48 AM 37.1425 -78.1608 47° Northeast 403 464 22,000  Level Washington Center
Sun 08:19:49 AM 37.2111 -78.0667 48° Northeast 408 470 22,000  Level Washington Center
Sun 08:20:49 AM 37.2886 -77.9569 48° Northeast 408 470 22,000  Level Washington Center
Sun 08:21:48 AM 37.3656 -77.8522 47° Northeast 408 470 22,000  Level Washington Center
Sun 08:22:49 AM 37.4428 -77.7447 48° Northeast 408 470 22,000 -203 Level Washington Center
Sun 08:23:46 AM 37.5197 -77.6367 48° Northeast 408 470 21,600 -966 Descending Washington Center
Sun 08:24:47 AM 37.5967 -77.5289 48° Northeast 408 470 20,100 -1,525 Descending Washington Center
Sun 08:25:48 AM 37.6792 -77.4494 37° Northeast 396 456 18,500 -1,488 Descending Washington Center
Sun 08:26:48 AM 37.7736 -77.4072 19° North 375 432 17,100 -1,438 Descending Washington Center
Sun 08:27:49 AM 37.8642 -77.3619 22° Northeast 352 405 15,600 -1,500 Descending Washington Center
Sun 08:28:48 AM 37.9544 -77.3194 20° North 347 399 14,100 -1,600 Descending Washington Center
Sun 08:29:49 AM 38.0531 -77.2742 20° North 340 391 12,400 -1,587 Descending Washington Center
Sun 08:30:49 AM 38.1453 -77.2286 21° North 340 391 10,900 -1,231 Descending Washington Center
Sun 08:31:46 AM 38.2336 -77.1883 20° North 340 391 10,000 -458 Descending Washington Center
Sun 08:32:47 AM 38.3236 -77.1533 17° North 335 386 10,000  Level Washington Center
Sun 08:33:48 AM 38.4156 -77.1339 North 330 380 10,000  Level Washington Center
Sun 08:34:48 AM 38.5036 -77.1119 11° North 330 380 10,000  Level Washington Center
Sun 08:35:49 AM 38.5956 -77.0925 North 330 380 10,000 -303 Level Washington Center
Sun 08:36:27 AM 38.6500 -77.0833 North 304 350 9,500 -1,286 Descending Potomac TRACON
Sun 08:37:27 AM 38.7333 -77.0667 North 283 326 7,900 -1,579 Descending Potomac TRACON
Sun 08:38:21 AM 38.8000 -77.0833 349° North 271 312 6,500 -950 Descending Potomac TRACON
Sun 08:39:27 AM 38.8500 -77.1500 314° West 220 253 6,000 -250 Descending Potomac TRACON
Sun 08:40:21 AM 38.9000 -77.1833 333° Northwest 200 230 6,000 -158 Level Potomac TRACON
Sun 08:41:21 AM 38.9333 -77.2500 303° West 206 237 5,700 -737 Descending Potomac TRACON
Sun 08:42:15 AM 38.9833 -77.2500 360° North 223 257 4,600 -1,368 Descending Potomac TRACON
Sun 08:43:15 AM 38.9833 -77.1833 90° East 204 235 3,100 -1,150 Descending Potomac TRACON
Sun 08:44:15 AM 38.9500 -77.1333 131° Southeast 178 205 2,300 -843 Descending Potomac TRACON
Sun 08:45:16 AM 38.9167 -77.1000 142° Southeast 165 190 1,400 -835 Descending Potomac TRACON
Sun 08:46:10 AM 38.9000 -77.0667 123° Southeast 150 173 700 -778 Descending Potomac TRACON
Sun 08:48:00 AM 38.8500 -77.0333 113° Southeast  Level FlightAware Approximate
Sun 08:55:00 AM 38.8519 -77.0377 113° Southeast  Level Estimated

Login

Don't have an account? Register now (free) for customized features, flight alerts, and more!